Time;durP1;ratioP1;P1;durP2;ratioP2;P2;SDS_P1;SDS_P2;PMS_P1;PMS_P2;Temp;Humidity;BMP_temperature;BMP_pressure;BME280_temperature;BME280_humidity;BME280_pressure;Samples;Min_cycle;Max_cycle;Signal;HPM_P1;HPM_P2
2023/05/01 00:00:53;;;;;;;31.63;21.88;;;9.50;99.90;;;;;;4999207;28;20037;-75
2023/05/01 00:03:20;;;;;;;35.13;23.02;;;9.50;99.90;;;;;;4999351;28;20124;-76
2023/05/01 00:05:48;;;;;;;35.03;22.67;;;9.60;99.90;;;;;;4997929;28;20578;-77
2023/05/01 00:08:15;;;;;;;37.05;22.33;;;9.50;99.90;;;;;;4981515;28;20429;-77
2023/05/01 00:10:45;;;;;;;31.98;21.77;;;9.50;99.90;;;;;;4999158;28;20030;-77
2023/05/01 00:13:12;;;;;;;38.50;24.40;;;9.50;99.90;;;;;;4996857;28;20046;-76
2023/05/01 00:15:42;;;;;;;43.35;27.42;;;9.50;99.90;;;;;;4998322;28;20662;-78
2023/05/01 00:18:09;;;;;;;44.13;28.70;;;9.40;99.90;;;;;;5002172;28;20054;-76
2023/05/01 00:20:37;;;;;;;37.50;26.23;;;9.30;99.90;;;;;;4999303;28;20030;-75
2023/05/01 00:23:05;;;;;;;34.80;23.58;;;9.20;99.90;;;;;;4999199;28;20041;-77
2023/05/01 00:25:33;;;;;;;27.88;20.58;;;9.10;99.90;;;;;;4999027;28;20658;-76
2023/05/01 00:28:00;;;;;;;27.83;20.65;;;9.10;99.90;;;;;;4996267;28;20057;-77
2023/05/01 00:30:28;;;;;;;25.38;19.45;;;9.10;99.90;;;;;;4996522;28;20088;-77
2023/05/01 00:32:58;;;;;;;26.27;17.85;;;9.20;99.90;;;;;;5000704;28;20166;-78
2023/05/01 00:35:25;;;;;;;24.80;17.48;;;9.20;99.90;;;;;;4998418;28;20058;-77
2023/05/01 00:37:53;;;;;;;26.67;17.50;;;9.10;99.90;;;;;;4982054;28;20093;-77
2023/05/01 00:40:21;;;;;;;26.60;17.45;;;9.00;99.90;;;;;;5013719;28;20098;-78
2023/05/01 00:42:49;;;;;;;25.50;17.25;;;8.90;99.90;;;;;;5022204;28;20077;-77
2023/05/01 00:45:17;;;;;;;22.42;16.45;;;8.90;99.90;;;;;;4999822;28;20077;-77
2023/05/01 00:47:45;;;;;;;21.88;15.82;;;8.80;99.90;;;;;;5011106;28;20533;-77
2023/05/01 00:50:14;;;;;;;27.00;16.67;;;8.80;99.90;;;;;;4999036;28;20042;-77
2023/05/01 00:52:42;;;;;;;29.67;19.83;;;8.90;99.90;;;;;;4979782;28;20062;-78
2023/05/01 00:55:10;;;;;;;25.45;16.75;;;8.80;99.90;;;;;;4999307;28;20064;-75
2023/05/01 00:57:37;;;;;;;22.30;15.82;;;8.80;99.90;;;;;;4984439;28;20060;-76
2023/05/01 01:00:07;;;;;;;22.10;13.52;;;8.70;99.90;;;;;;4996380;28;20541;-77
2023/05/01 01:02:35;;;;;;;21.55;14.50;;;8.70;99.90;;;;;;4997868;28;20427;-76
2023/05/01 01:05:03;;;;;;;21.67;13.25;;;8.70;99.90;;;;;;4998558;28;20129;-78
2023/05/01 01:07:41;;;;;;;22.30;13.90;;;8.60;99.90;;;;;;4998533;28;20104;-77
2023/05/01 01:10:18;;;;;;;21.42;14.45;;;8.50;99.90;;;;;;4997788;28;20078;-77
2023/05/01 01:12:54;;;;;;;19.70;15.32;;;8.50;99.90;;;;;;4998452;28;20125;-77
2023/05/01 01:15:29;;;;;;;24.05;16.48;;;8.50;99.90;;;;;;4996711;28;20583;-77
2023/05/01 01:18:08;;;;;;;26.75;17.63;;;8.50;99.90;;;;;;4999285;28;20118;-78
2023/05/01 01:20:41;;;;;;;30.35;18.73;;;8.50;99.90;;;;;;5003888;28;20046;-77
2023/05/01 01:23:36;;;;;;;28.25;18.45;;;8.40;99.90;;;;;;4981341;28;20038;-77
2023/05/01 01:26:13;;;;;;;27.77;18.80;;;8.50;99.90;;;;;;5004095;28;20409;-76
2023/05/01 01:29:22;;;;;;;25.00;16.95;;;8.40;99.90;;;;;;5002696;28;20129;-77
2023/05/01 01:32:01;;;;;;;21.52;13.38;;;8.40;99.90;;;;;;5001091;28;20046;-77
2023/05/01 01:34:34;;;;;;;17.02;13.27;;;8.40;99.90;;;;;;4984299;28;20502;-77
2023/05/01 01:37:23;;;;;;;19.38;14.27;;;8.30;99.90;;;;;;5002216;23;20037;-75
2023/05/01 01:39:58;;;;;;;18.98;14.38;;;8.30;99.90;;;;;;4971487;28;20071;-78
2023/05/01 01:42:35;;;;;;;22.20;15.18;;;8.30;99.90;;;;;;4965187;28;20044;-77
2023/05/01 01:45:09;;;;;;;22.67;15.63;;;8.20;99.90;;;;;;4963133;28;21695;-78
2023/05/01 01:47:42;;;;;;;22.48;16.63;;;8.10;99.90;;;;;;4961427;28;20131;-76
2023/05/01 01:50:12;;;;;;;20.50;15.65;;;8.10;99.90;;;;;;4946306;28;20524;-77
2023/05/01 01:52:42;;;;;;;21.42;15.80;;;8.10;99.90;;;;;;4946721;28;20067;-79
2023/05/01 01:55:13;;;;;;;21.67;16.30;;;8.00;99.90;;;;;;4946482;28;20282;-78
2023/05/01 01:57:43;;;;;;;23.23;15.35;;;7.90;99.90;;;;;;4977288;28;20085;-76
2023/05/01 02:00:12;;;;;;;22.60;16.30;;;7.80;99.90;;;;;;4981687;28;20133;-77
2023/05/01 02:02:48;;;;;;;17.75;14.57;;;7.80;99.90;;;;;;4983528;28;20046;-76
2023/05/01 02:05:19;;;;;;;19.90;13.73;;;7.70;99.90;;;;;;4986566;28;20129;-75
2023/05/01 02:07:49;;;;;;;21.08;14.13;;;7.70;99.90;;;;;;5002822;28;20074;-73
2023/05/01 02:10:19;;;;;;;20.45;13.38;;;7.70;99.90;;;;;;5022567;28;20052;-76
2023/05/01 02:12:51;;;;;;;18.15;13.23;;;7.70;99.90;;;;;;5026670;28;20261;-77
2023/05/01 02:15:20;;;;;;;22.20;13.63;;;7.70;99.90;;;;;;5010712;28;20231;-79
2023/05/01 02:17:49;;;;;;;16.70;12.82;;;7.70;99.90;;;;;;4986202;28;20070;-75
2023/05/01 02:20:21;;;;;;;19.90;13.23;;;7.80;99.90;;;;;;4984355;28;20045;-76
2023/05/01 02:22:51;;;;;;;20.95;13.85;;;7.80;99.90;;;;;;4984740;28;20549;-76
2023/05/01 02:25:19;;;;;;;17.33;12.02;;;7.70;99.90;;;;;;4986730;28;20042;-78
2023/05/01 02:27:51;;;;;;;19.45;12.35;;;7.60;99.90;;;;;;4985471;28;20100;-74
2023/05/01 02:30:18;;;;;;;15.50;11.30;;;7.60;99.90;;;;;;5019604;28;20046;-75
2023/05/01 02:32:46;;;;;;;19.67;13.52;;;7.60;99.90;;;;;;5012952;28;20078;-77
2023/05/01 02:35:13;;;;;;;20.83;14.00;;;7.60;99.90;;;;;;5002162;28;20037;-77
2023/05/01 02:37:43;;;;;;;19.13;14.05;;;7.60;99.90;;;;;;5003101;28;20049;-77
2023/05/01 02:40:13;;;;;;;22.05;14.57;;;7.60;99.90;;;;;;5000268;28;20042;-78
2023/05/01 02:42:42;;;;;;;19.90;14.18;;;7.60;99.90;;;;;;5000257;28;20037;-77
2023/05/01 02:45:18;;;;;;;19.40;13.73;;;7.50;99.90;;;;;;4997074;28;20050;-78
2023/05/01 02:47:48;;;;;;;21.52;13.80;;;7.50;99.90;;;;;;4983657;28;20054;-78
2023/05/01 02:50:16;;;;;;;21.40;13.65;;;7.40;99.90;;;;;;4983240;28;20046;-77
2023/05/01 02:52:46;;;;;;;18.05;12.88;;;7.30;99.90;;;;;;4983552;28;20060;-77
2023/05/01 02:55:28;;;;;;;20.95;14.60;;;7.30;99.90;;;;;;4984035;28;20042;-75
2023/05/01 02:57:59;;;;;;;18.70;13.68;;;7.40;99.90;;;;;;5013138;28;20053;-78
2023/05/01 03:00:26;;;;;;;16.35;12.50;;;7.40;99.90;;;;;;5006230;28;20134;-78
2023/05/01 03:02:54;;;;;;;19.00;12.35;;;7.40;99.90;;;;;;5001121;28;20049;-78
2023/05/01 03:05:22;;;;;;;18.20;12.90;;;7.40;99.90;;;;;;4984225;28;20062;-77
2023/05/01 03:07:51;;;;;;;21.80;12.85;;;7.30;99.90;;;;;;4985086;28;20069;-78
2023/05/01 03:10:18;;;;;;;19.23;13.48;;;7.30;99.90;;;;;;5007663;28;20088;-76
2023/05/01 03:12:46;;;;;;;22.20;14.18;;;7.20;99.90;;;;;;5001415;28;20055;-77
2023/05/01 03:15:13;;;;;;;21.00;15.43;;;7.20;99.90;;;;;;4967861;28;20062;-78
2023/05/01 03:17:41;;;;;;;27.10;16.90;;;7.10;99.90;;;;;;4999909;28;20138;-76
2023/05/01 03:20:09;;;;;;;18.67;14.70;;;7.10;99.90;;;;;;4986096;28;20035;-75
2023/05/01 03:22:37;;;;;;;20.38;14.68;;;7.10;99.90;;;;;;5017731;28;20117;-78
2023/05/01 03:25:07;;;;;;;25.92;19.58;;;7.10;99.90;;;;;;5025142;28;20058;-76
2023/05/01 03:27:34;;;;;;;24.20;18.05;;;7.10;99.90;;;;;;5031050;28;20046;-77
2023/05/01 03:30:04;;;;;;;22.58;17.20;;;7.10;99.90;;;;;;5020312;28;20046;-76
2023/05/01 03:32:36;;;;;;;23.73;16.88;;;7.10;99.90;;;;;;5005298;28;20060;-78
2023/05/01 03:35:06;;;;;;;20.25;15.88;;;7.10;99.90;;;;;;5002671;28;20234;-76
2023/05/01 03:37:34;;;;;;;19.13;15.85;;;7.10;99.90;;;;;;5015544;28;20058;-76
2023/05/01 03:40:02;;;;;;;21.85;18.98;;;7.10;99.90;;;;;;5012291;28;20107;-74
2023/05/01 03:42:49;;;;;;;22.65;18.05;;;7.10;99.90;;;;;;5014532;28;20045;-76
2023/05/01 03:45:21;;;;;;;27.13;17.27;;;7.10;99.90;;;;;;4990076;28;20057;-77
2023/05/01 03:47:49;;;;;;;24.98;18.60;;;7.10;99.90;;;;;;4995452;28;20043;-74
2023/05/01 03:50:17;;;;;;;28.88;19.25;;;7.10;99.90;;;;;;4995893;28;20060;-77
2023/05/01 03:52:47;;;;;;;24.85;15.93;;;7.10;99.90;;;;;;4990265;28;20060;-80
2023/05/01 03:55:15;;;;;;;21.45;14.55;;;7.20;99.90;;;;;;4984470;28;20438;-76
2023/05/01 03:57:45;;;;;;;22.55;14.90;;;7.20;99.90;;;;;;5006266;28;20065;-78
2023/05/01 04:00:16;;;;;;;21.88;12.98;;;7.20;99.90;;;;;;5006544;28;20042;-75
2023/05/01 04:02:43;;;;;;;19.88;12.75;;;7.30;99.90;;;;;;5000827;28;20050;-76
2023/05/01 04:05:16;;;;;;;17.33;11.95;;;7.50;99.90;;;;;;5008823;28;20483;-77
2023/05/01 04:07:49;;;;;;;20.60;12.65;;;7.70;99.90;;;;;;5003345;28;20128;-77
2023/05/01 04:10:16;;;;;;;19.77;12.00;;;8.10;99.90;;;;;;5020703;28;20046;-77
2023/05/01 04:12:51;;;;;;;26.17;16.63;;;8.80;99.90;;;;;;4984537;28;20038;-79
2023/05/01 04:15:21;;;;;;;22.17;14.60;;;9.30;99.90;;;;;;4984441;28;20149;-79
2023/05/01 04:17:53;;;;;;;19.20;11.88;;;9.70;99.90;;;;;;4983755;28;20057;-76
2023/05/01 04:20:20;;;;;;;17.70;11.35;;;10.30;99.90;;;;;;4983809;28;20049;-76
2023/05/01 04:22:48;;;;;;;18.08;11.80;;;10.60;99.90;;;;;;4999342;28;20041;-78
2023/05/01 04:25:15;;;;;;;13.80;9.63;;;10.90;99.90;;;;;;5017674;28;20470;-77
2023/05/01 04:27:45;;;;;;;13.68;8.80;;;11.50;99.90;;;;;;4981271;28;20053;-77
2023/05/01 04:30:14;;;;;;;16.45;11.15;;;11.90;99.90;;;;;;4982333;28;20061;-76
2023/05/01 04:32:43;;;;;;;15.95;10.95;;;11.50;99.90;;;;;;4981744;28;20137;-77
2023/05/01 04:35:11;;;;;;;15.20;9.98;;;10.90;99.90;;;;;;4982612;28;20066;-76
2023/05/01 04:37:41;;;;;;;18.13;9.30;;;10.60;99.90;;;;;;4982999;28;20053;-75
2023/05/01 04:40:11;;;;;;;13.63;9.35;;;10.60;99.90;;;;;;4985109;28;20551;-76
2023/05/01 04:42:38;;;;;;;15.23;9.18;;;10.60;99.90;;;;;;5007159;28;20045;-75
2023/05/01 04:45:10;;;;;;;14.50;8.73;;;10.40;99.90;;;;;;4984080;28;20514;-76
2023/05/01 04:47:38;;;;;;;15.93;9.68;;;10.30;99.90;;;;;;4981924;28;20070;-75
2023/05/01 04:50:07;;;;;;;14.52;9.23;;;10.20;99.90;;;;;;4985642;28;20054;-75
2023/05/01 04:52:35;;;;;;;14.13;10.00;;;10.30;99.90;;;;;;5026952;28;20054;-75
2023/05/01 04:55:05;;;;;;;16.98;9.60;;;10.50;99.90;;;;;;5019847;28;20133;-75
2023/05/01 04:57:36;;;;;;;16.60;9.98;;;10.80;99.90;;;;;;5018695;28;20125;-75
2023/05/01 05:00:08;;;;;;;11.68;8.48;;;11.00;99.90;;;;;;4982750;28;20134;-76
2023/05/01 05:02:46;;;;;;;14.60;9.18;;;11.00;99.90;;;;;;4982504;28;20197;-76
2023/05/01 05:05:16;;;;;;;13.95;9.55;;;11.10;99.90;;;;;;4982934;28;20042;-78
2023/05/01 05:07:44;;;;;;;15.98;8.93;;;11.30;99.90;;;;;;5009264;28;20046;-76
2023/05/01 05:10:34;;;;;;;12.00;8.30;;;11.60;99.90;;;;;;4986938;28;20042;-75
2023/05/01 05:13:28;;;;;;;13.40;8.23;;;11.80;99.90;;;;;;4983327;28;20045;-79
2023/05/01 05:16:02;;;;;;;13.45;8.18;;;12.00;99.90;;;;;;5002016;28;20050;-75
2023/05/01 05:18:29;;;;;;;13.68;8.93;;;12.10;99.90;;;;;;5008630;28;20267;-76
2023/05/01 05:21:02;;;;;;;13.80;9.60;;;12.10;99.90;;;;;;4981007;28;20133;-76
2023/05/01 05:23:30;;;;;;;15.13;9.48;;;12.40;99.90;;;;;;4982829;28;20050;-76
2023/05/01 05:25:58;;;;;;;13.48;8.60;;;12.70;99.90;;;;;;4983614;28;20198;-76
2023/05/01 05:28:26;;;;;;;13.55;9.13;;;13.00;99.90;;;;;;4981322;28;20056;-76
2023/05/01 05:30:54;;;;;;;14.70;9.35;;;13.20;99.90;;;;;;4986727;28;20114;-76
2023/05/01 05:33:26;;;;;;;13.23;9.68;;;13.00;99.90;;;;;;4998168;28;20036;-76
2023/05/01 05:35:54;;;;;;;13.60;9.63;;;13.10;99.90;;;;;;5001229;28;20052;-79
2023/05/01 05:38:28;;;;;;;16.08;11.00;;;13.40;99.90;;;;;;4981524;28;20128;-76
2023/05/01 05:40:58;;;;;;;14.73;10.77;;;13.70;99.90;;;;;;4983345;28;20043;-75
2023/05/01 05:43:26;;;;;;;15.10;10.75;;;13.90;99.90;;;;;;4999620;28;20077;-78
2023/05/01 05:45:57;;;;;;;17.02;11.52;;;14.10;99.90;;;;;;4981570;28;20043;-75
2023/05/01 05:48:25;;;;;;;16.98;10.77;;;14.50;99.90;;;;;;4981118;28;20046;-78
2023/05/01 05:50:52;;;;;;;17.42;11.15;;;15.00;99.90;;;;;;4981332;28;20129;-76
2023/05/01 05:53:21;;;;;;;15.63;11.63;;;15.40;99.90;;;;;;4981488;28;20161;-77
2023/05/01 05:55:52;;;;;;;16.08;11.27;;;15.60;99.90;;;;;;5006641;28;20076;-77
2023/05/01 05:58:21;;;;;;;16.10;12.40;;;15.60;99.90;;;;;;4981552;28;20487;-76
2023/05/01 06:00:51;;;;;;;15.10;11.13;;;15.80;99.90;;;;;;4979606;28;20039;-77
2023/05/01 06:03:19;;;;;;;19.27;11.98;;;16.10;99.90;;;;;;4980401;28;20466;-77
2023/05/01 06:05:47;;;;;;;16.50;11.25;;;16.30;99.90;;;;;;4979122;28;20469;-76
2023/05/01 06:08:15;;;;;;;14.00;11.32;;;16.50;99.90;;;;;;5006193;28;20490;-77
2023/05/01 06:10:43;;;;;;;13.02;11.45;;;16.50;99.90;;;;;;4982829;28;20088;-75
2023/05/01 06:13:12;;;;;;;14.80;11.55;;;16.70;99.90;;;;;;4997394;28;20122;-77
2023/05/01 06:15:42;;;;;;;13.20;10.63;;;16.70;99.90;;;;;;4984169;28;20034;-77
2023/05/01 06:18:10;;;;;;;16.73;11.82;;;16.80;99.90;;;;;;4983353;28;20385;-78
2023/05/01 06:20:38;;;;;;;14.18;11.02;;;16.90;99.90;;;;;;4984598;28;20041;-77
2023/05/01 06:23:07;;;;;;;16.17;11.98;;;16.90;96.50;;;;;;4984778;28;20048;-78
2023/05/01 06:26:06;;;;;;;17.90;11.20;;;16.80;96.80;;;;;;4983314;28;20137;-76
2023/05/01 06:28:36;;;;;;;15.98;11.68;;;17.10;99.30;;;;;;4985745;28;20046;-77
2023/05/01 06:31:04;;;;;;;13.75;10.70;;;17.50;95.40;;;;;;5003169;28;20136;-79
2023/05/01 06:33:35;;;;;;;14.43;10.48;;;17.70;94.00;;;;;;4984979;28;20050;-77
2023/05/01 06:36:14;;;;;;;14.13;10.05;;;17.80;92.80;;;;;;5001611;28;20034;-76
2023/05/01 06:38:47;;;;;;;15.60;10.27;;;17.80;92.70;;;;;;4998975;28;20628;-74
2023/05/01 06:41:15;;;;;;;13.52;11.05;;;17.60;93.90;;;;;;4984894;28;20140;-77
2023/05/01 06:43:44;;;;;;;14.02;10.75;;;17.80;93.00;;;;;;4986065;28;20042;-76
2023/05/01 06:46:12;;;;;;;14.38;10.30;;;17.70;92.90;;;;;;4985213;28;20041;-76
2023/05/01 06:48:39;;;;;;;18.98;9.95;;;17.60;95.40;;;;;;4982289;28;20037;-78
2023/05/01 06:51:07;;;;;;;13.07;10.68;;;17.50;99.10;;;;;;4998164;28;20050;-74
2023/05/01 06:53:35;;;;;;;17.73;11.65;;;17.50;99.90;;;;;;4984337;28;20034;-78
2023/05/01 06:56:03;;;;;;;16.35;11.23;;;17.60;99.90;;;;;;5003409;28;20049;-72
2023/05/01 06:58:30;;;;;;;12.93;10.45;;;17.70;99.90;;;;;;5002915;28;20425;-76
2023/05/01 07:00:59;;;;;;;11.52;10.13;;;17.80;99.90;;;;;;4991741;28;20104;-76
2023/05/01 07:03:27;;;;;;;15.52;11.50;;;18.10;99.90;;;;;;5004809;28;20049;-76
2023/05/01 07:05:55;;;;;;;14.85;10.98;;;18.20;98.30;;;;;;5021927;28;20048;-77
2023/05/01 07:08:23;;;;;;;11.82;10.40;;;18.40;94.30;;;;;;5011038;28;20042;-76
2023/05/01 07:10:50;;;;;;;12.80;9.63;;;18.50;91.60;;;;;;5001498;28;20056;-76
2023/05/01 07:13:18;;;;;;;12.85;9.60;;;18.70;88.20;;;;;;5001273;28;20042;-77
2023/05/01 07:15:49;;;;;;;12.23;9.50;;;18.60;83.90;;;;;;4985064;28;20081;-77
2023/05/01 07:18:17;;;;;;;12.60;8.57;;;18.60;82.50;;;;;;5003047;28;20045;-79
2023/05/01 07:20:45;;;;;;;14.43;9.57;;;18.90;81.60;;;;;;4984003;28;20066;-76
2023/05/01 07:23:13;;;;;;;13.93;9.43;;;19.00;81.40;;;;;;4986800;28;20045;-76
2023/05/01 07:25:41;;;;;;;12.00;9.15;;;19.10;80.90;;;;;;4985162;28;20054;-75
2023/05/01 07:28:09;;;;;;;12.73;9.38;;;19.10;80.30;;;;;;4998490;28;20102;-76
2023/05/01 07:30:36;;;;;;;11.27;9.80;;;18.90;81.30;;;;;;4983017;28;20053;-77
2023/05/01 07:33:05;;;;;;;13.25;8.70;;;19.00;82.80;;;;;;4984774;28;20038;-76
2023/05/01 07:35:34;;;;;;;12.77;9.40;;;19.30;81.00;;;;;;5002608;28;20238;-77
2023/05/01 07:38:02;;;;;;;12.30;8.98;;;19.50;80.40;;;;;;5026085;23;20058;-78
2023/05/01 07:40:29;;;;;;;13.02;9.30;;;19.70;79.10;;;;;;4996561;28;20040;-78
2023/05/01 07:42:57;;;;;;;17.67;9.57;;;19.70;77.80;;;;;;4998123;28;20061;-78
2023/05/01 07:45:24;;;;;;;13.20;9.63;;;19.70;77.70;;;;;;4999889;28;20047;-76
2023/05/01 07:47:52;;;;;;;12.50;9.43;;;19.50;78.30;;;;;;4998398;28;20053;-76
2023/05/01 07:50:19;;;;;;;14.02;9.07;;;19.40;79.40;;;;;;4989280;28;20458;-76
2023/05/01 07:52:48;;;;;;;13.55;8.75;;;19.80;80.70;;;;;;4989141;28;20447;-78
2023/05/01 07:55:18;;;;;;;12.20;9.68;;;20.20;77.70;;;;;;4988152;28;20039;-79
2023/05/01 07:57:45;;;;;;;13.32;10.13;;;20.50;75.10;;;;;;4989392;28;20546;-77
2023/05/01 08:00:14;;;;;;;14.65;9.77;;;20.60;74.50;;;;;;4989105;28;20053;-77
2023/05/01 08:02:41;;;;;;;12.45;9.32;;;20.40;74.90;;;;;;4988762;28;20042;-75
2023/05/01 08:05:09;;;;;;;14.05;9.52;;;20.50;74.80;;;;;;4990378;28;20042;-75
2023/05/01 08:07:37;;;;;;;12.25;8.95;;;20.50;75.70;;;;;;4989672;28;20042;-75
2023/05/01 08:10:07;;;;;;;11.88;8.77;;;20.60;75.00;;;;;;4990108;28;20062;-80
2023/05/01 08:12:34;;;;;;;16.63;9.38;;;20.40;74.50;;;;;;4989571;28;20398;-76
2023/05/01 08:15:02;;;;;;;17.25;9.13;;;20.40;75.10;;;;;;5003329;28;20129;-78
2023/05/01 08:17:29;;;;;;;18.88;12.88;;;20.60;74.90;;;;;;4987520;28;20062;-76
2023/05/01 08:19:57;;;;;;;17.80;12.93;;;20.70;73.20;;;;;;4990534;28;20105;-82
2023/05/01 08:22:24;;;;;;;12.32;6.18;;;20.70;71.90;;;;;;4988359;28;20050;-77
2023/05/01 08:24:52;;;;;;;47.85;35.17;;;20.50;67.40;;;;;;4989114;28;20042;-80
2023/05/01 08:27:21;;;;;;;8.32;3.60;;;20.40;65.20;;;;;;4988409;28;20039;-88
2023/05/01 08:29:48;;;;;;;8.23;4.72;;;20.40;64.30;;;;;;4988025;28;20052;-76
2023/05/01 08:32:17;;;;;;;5.88;4.63;;;20.50;65.10;;;;;;4988063;28;20662;-75
2023/05/01 08:34:45;;;;;;;8.52;4.20;;;20.50;63.60;;;;;;4988835;28;20042;-76
2023/05/01 08:37:12;;;;;;;9.38;4.30;;;20.50;63.30;;;;;;4988503;28;20046;-75
2023/05/01 08:39:40;;;;;;;4.80;3.58;;;20.80;63.00;;;;;;4986317;28;20046;-74
2023/05/01 08:42:08;;;;;;;4.60;3.55;;;20.90;63.00;;;;;;4988363;28;20038;-74
2023/05/01 08:44:39;;;;;;;7.13;3.85;;;20.80;62.20;;;;;;4989187;28;20050;-75
2023/05/01 08:47:15;;;;;;;5.38;3.20;;;21.10;61.90;;;;;;4989548;28;20491;-76
2023/05/01 08:49:44;;;;;;;3.80;3.03;;;21.00;59.90;;;;;;4988804;28;20439;-75
2023/05/01 08:52:12;;;;;;;9.02;4.05;;;21.40;58.80;;;;;;4988743;28;20034;-75
2023/05/01 08:54:42;;;;;;;7.28;3.42;;;21.60;59.20;;;;;;4988582;28;20054;-75
2023/05/01 08:57:10;;;;;;;5.68;3.60;;;21.60;59.20;;;;;;4988185;28;20038;-73
2023/05/01 08:59:40;;;;;;;4.82;3.15;;;21.60;57.00;;;;;;4987976;28;20046;-76
2023/05/01 09:02:09;;;;;;;5.63;2.97;;;21.70;55.80;;;;;;4988152;28;20046;-75
2023/05/01 09:04:39;;;;;;;5.50;2.80;;;21.60;55.70;;;;;;4988263;28;20108;-75
2023/05/01 09:07:06;;;;;;;6.60;3.58;;;21.70;55.70;;;;;;4986497;28;20053;-73
2023/05/01 09:09:34;;;;;;;6.25;3.00;;;21.90;54.90;;;;;;4989437;28;20050;-76
2023/05/01 09:12:08;;;;;;;5.70;3.10;;;22.20;54.10;;;;;;4988422;28;20050;-75
2023/05/01 09:14:36;;;;;;;5.25;3.33;;;22.30;53.30;;;;;;4987925;28;20154;-74
2023/05/01 09:17:05;;;;;;;5.18;3.55;;;22.80;53.20;;;;;;4989447;28;20047;-76
2023/05/01 09:19:32;;;;;;;5.82;3.20;;;23.10;52.50;;;;;;4989050;28;20047;-75
2023/05/01 09:22:00;;;;;;;5.63;3.10;;;22.80;51.60;;;;;;4988629;28;20043;-75
2023/05/01 09:24:27;;;;;;;5.68;3.28;;;22.90;52.50;;;;;;4987734;28;20046;-75
2023/05/01 09:26:56;;;;;;;5.15;3.33;;;23.00;51.80;;;;;;4988911;28;20153;-76
2023/05/01 09:29:47;;;;;;;3.97;3.30;;;23.00;51.80;;;;;;4988724;28;20042;-76
2023/05/01 09:32:19;;;;;;;9.75;4.32;;;22.80;51.70;;;;;;4973588;28;20105;-76
2023/05/01 09:34:47;;;;;;;5.60;3.13;;;22.80;52.30;;;;;;4989023;28;20039;-75
2023/05/01 09:37:27;;;;;;;4.20;3.00;;;22.90;51.30;;;;;;4988515;28;20442;-75
2023/05/01 09:40:04;;;;;;;6.03;3.00;;;23.00;50.50;;;;;;5006741;28;20157;-76
2023/05/01 09:42:32;;;;;;;4.18;2.65;;;23.10;49.20;;;;;;5008300;28;20319;-75
2023/05/01 09:45:00;;;;;;;7.78;3.03;;;23.30;48.40;;;;;;5010181;28;20073;-75
2023/05/01 09:47:29;;;;;;;5.13;2.40;;;23.20;47.70;;;;;;5009047;28;20104;-75
2023/05/01 09:49:58;;;;;;;3.75;2.47;;;23.10;47.70;;;;;;4997536;28;20342;-76
2023/05/01 09:52:28;;;;;;;4.32;2.25;;;23.00;47.00;;;;;;5011732;28;20046;-74
2023/05/01 09:55:16;;;;;;;2.90;2.10;;;22.70;46.50;;;;;;5012170;28;20049;-76
2023/05/01 09:57:44;;;;;;;4.75;2.50;;;22.60;45.80;;;;;;5011647;28;20068;-75
2023/05/01 10:00:14;;;;;;;3.97;2.17;;;22.30;46.20;;;;;;5011122;28;20052;-75
2023/05/01 10:02:46;;;;;;;4.70;2.80;;;22.10;45.90;;;;;;5012033;28;20111;-76
2023/05/01 10:05:15;;;;;;;5.32;2.45;;;22.10;46.10;;;;;;5011308;28;20038;-75
2023/05/01 10:07:57;;;;;;;4.63;2.78;;;22.40;46.40;;;;;;5011782;28;20080;-74
2023/05/01 10:10:25;;;;;;;4.20;2.20;;;22.80;46.70;;;;;;4993051;28;20050;-75
2023/05/01 10:12:52;;;;;;;3.75;2.45;;;22.80;46.20;;;;;;5011363;28;20505;-75
2023/05/01 10:15:20;;;;;;;5.70;2.22;;;22.90;45.20;;;;;;5021025;28;20026;-74
2023/05/01 10:17:51;;;;;;;4.45;2.28;;;22.70;45.00;;;;;;5036723;28;20049;-74
2023/05/01 10:20:18;;;;;;;3.50;2.40;;;22.60;45.70;;;;;;5006160;28;20076;-75
2023/05/01 10:22:47;;;;;;;7.40;2.50;;;22.40;45.70;;;;;;5015550;28;20048;-75
2023/05/01 10:25:16;;;;;;;5.10;3.03;;;22.40;46.00;;;;;;5014312;28;20510;-76
2023/05/01 10:27:43;;;;;;;4.50;3.05;;;22.20;46.10;;;;;;5013655;28;20045;-75
2023/05/01 10:30:11;;;;;;;3.60;2.63;;;22.10;47.10;;;;;;5011020;28;20124;-74
2023/05/01 10:32:41;;;;;;;5.38;2.60;;;22.20;46.30;;;;;;5011273;28;20042;-75
2023/05/01 10:35:15;;;;;;;5.20;2.80;;;22.20;46.10;;;;;;5010634;28;20383;-75
2023/05/01 10:37:47;;;;;;;3.00;2.25;;;22.40;46.30;;;;;;5010010;28;20068;-74
2023/05/01 10:40:48;;;;;;;3.50;2.60;;;22.60;47.00;;;;;;5010448;28;20065;-74
2023/05/01 10:43:18;;;;;;;3.40;2.45;;;22.60;46.20;;;;;;5002921;28;20049;-74
2023/05/01 10:45:46;;;;;;;4.40;2.50;;;22.40;46.00;;;;;;5009238;28;20046;-75
2023/05/01 10:48:53;;;;;;;6.07;3.10;;;22.30;45.90;;;;;;5009445;28;20514;-75
2023/05/01 10:51:26;;;;;;;3.58;2.25;;;22.30;46.70;;;;;;5010496;28;20038;-75
2023/05/01 10:54:25;;;;;;;3.90;2.63;;;22.50;45.30;;;;;;5010362;28;20582;-75
2023/05/01 10:56:54;;;;;;;7.00;3.20;;;22.40;45.50;;;;;;5010404;28;20061;-74
2023/05/01 10:59:21;;;;;;;3.50;2.50;;;22.30;46.40;;;;;;5009470;28;20042;-74
2023/05/01 11:01:51;;;;;;;3.28;2.10;;;22.20;46.20;;;;;;5010501;28;20061;-75
2023/05/01 11:04:55;;;;;;;5.28;2.30;;;22.30;46.70;;;;;;5009808;28;20410;-75
2023/05/01 11:07:25;;;;;;;6.07;2.58;;;22.30;46.00;;;;;;5009951;28;20061;-74
2023/05/01 11:09:56;;;;;;;6.20;2.15;;;22.30;46.80;;;;;;5009719;28;20050;-75
2023/05/01 11:12:50;;;;;;;4.50;2.20;;;22.10;45.10;;;;;;5010099;28;20171;-74
2023/05/01 11:15:31;;;;;;;3.92;2.20;;;22.10;43.60;;;;;;5009368;28;20453;-75
2023/05/01 11:17:59;;;;;;;3.05;2.13;;;22.30;43.80;;;;;;5010032;28;20042;-75
2023/05/01 11:20:52;;;;;;;3.42;2.50;;;22.30;43.70;;;;;;5008517;28;20042;-74
2023/05/01 11:23:22;;;;;;;4.28;3.17;;;22.40;43.50;;;;;;5012014;28;20077;-75
2023/05/01 11:26:01;;;;;;;4.00;2.50;;;22.40;44.90;;;;;;5012698;28;20068;-75
2023/05/01 11:28:31;;;;;;;3.10;2.40;;;22.40;44.80;;;;;;5010295;28;20045;-75
2023/05/01 11:31:00;;;;;;;5.22;2.55;;;22.40;43.30;;;;;;5008349;28;20107;-75
2023/05/01 11:33:27;;;;;;;5.28;2.30;;;22.50;41.70;;;;;;5009188;28;20038;-75
2023/05/01 11:36:00;;;;;;;4.57;2.40;;;22.60;42.10;;;;;;5009800;28;20048;-75
2023/05/01 11:38:29;;;;;;;6.13;3.13;;;22.70;41.70;;;;;;5008995;28;20061;-76
2023/05/01 11:41:05;;;;;;;4.13;3.10;;;22.50;41.20;;;;;;4992116;28;20077;-75
2023/05/01 11:43:32;;;;;;;4.32;2.92;;;22.20;42.10;;;;;;5010175;28;20049;-74
2023/05/01 11:46:02;;;;;;;4.13;3.00;;;22.20;44.00;;;;;;5009254;28;20046;-75
2023/05/01 11:48:31;;;;;;;3.72;2.55;;;22.30;43.70;;;;;;5009902;28;20046;-76
2023/05/01 11:50:58;;;;;;;5.75;2.85;;;22.30;41.50;;;;;;4991427;28;20453;-77
2023/05/01 11:53:25;;;;;;;4.75;2.72;;;22.20;42.10;;;;;;5009940;28;20161;-75
2023/05/01 11:55:54;;;;;;;4.25;2.65;;;22.30;41.50;;;;;;5010054;28;20042;-75
2023/05/01 11:58:32;;;;;;;9.57;3.00;;;22.40;43.00;;;;;;5009423;28;20129;-74
2023/05/01 12:01:00;;;;;;;6.35;2.92;;;22.30;43.20;;;;;;5011116;28;20037;-76
2023/05/01 12:03:28;;;;;;;5.70;2.88;;;22.30;45.30;;;;;;5009681;28;20044;-74
2023/05/01 12:05:56;;;;;;;3.55;2.55;;;22.40;43.50;;;;;;5009928;28;20088;-75
2023/05/01 12:08:24;;;;;;;2.67;2.00;;;22.30;43.30;;;;;;5008636;28;20057;-75
2023/05/01 12:10:55;;;;;;;5.85;3.00;;;22.30;40.90;;;;;;5008484;28;20134;-75
2023/05/01 12:13:22;;;;;;;4.55;2.50;;;22.30;41.30;;;;;;5008160;28;20099;-75
2023/05/01 12:15:52;;;;;;;4.72;2.17;;;22.30;41.00;;;;;;5008316;28;20049;-75
2023/05/01 12:18:20;;;;;;;3.42;2.20;;;22.20;39.10;;;;;;4991512;28;20041;-75
2023/05/01 12:20:50;;;;;;;4.20;2.40;;;22.10;39.10;;;;;;5008299;28;20045;-77
2023/05/01 12:23:19;;;;;;;5.45;2.72;;;22.30;40.90;;;;;;5008691;28;20038;-75
2023/05/01 12:25:47;;;;;;;4.88;2.47;;;22.30;41.30;;;;;;5009850;28;20092;-75
2023/05/01 12:28:18;;;;;;;3.42;2.50;;;22.10;40.20;;;;;;5009076;28;20486;-75
2023/05/01 12:30:47;;;;;;;9.25;2.95;;;22.20;41.20;;;;;;5008294;28;20050;-75
2023/05/01 12:33:16;;;;;;;5.93;3.10;;;22.30;42.30;;;;;;5008768;28;20161;-75
2023/05/01 12:35:45;;;;;;;4.32;2.50;;;22.40;42.20;;;;;;5008425;28;20053;-75
2023/05/01 12:38:14;;;;;;;5.40;2.53;;;22.60;42.60;;;;;;5007287;28;20054;-75
2023/05/01 12:40:51;;;;;;;4.38;2.78;;;22.60;42.90;;;;;;5009084;28;20045;-75
2023/05/01 12:43:21;;;;;;;4.60;3.15;;;22.60;42.20;;;;;;5009467;28;20038;-74
2023/05/01 12:45:52;;;;;;;16.25;3.47;;;22.70;42.00;;;;;;5008599;28;20042;-75
2023/05/01 12:48:20;;;;;;;3.92;2.60;;;22.70;42.70;;;;;;5008589;28;20042;-75
2023/05/01 12:50:53;;;;;;;4.30;2.75;;;22.70;42.30;;;;;;5008167;28;20095;-74
2023/05/01 12:53:21;;;;;;;4.90;3.80;;;22.90;41.70;;;;;;5008720;28;20042;-76
2023/05/01 12:55:50;;;;;;;4.80;2.80;;;22.90;41.30;;;;;;4991217;28;20041;-75